Little Chute, Wisconsin
Current Conditions -  °F | °C
As of 4:55 AM on Friday 31 Oct 2014 (Local Time) from KATW Reporting Station
Overcast Overcast  
Wind Chill: 24°   Ceiling: 3600
Heat Index: 36°   Visibility: 10mi
Dew Point: 27°   Wind: 24mph
Humidity: 70%   Direction: 350°N
Pressure: 30.12"   Gusts: 36mph
Location:  44.28°N, 88.32°W
Report Text: KATW 310955Z AUTO 35021G31KT 10SM SCT029 OVC036 02/M03 A3012 RMK AO2
Loading
Personal Weather Stations






























Interactive Weather Map
Tropical Storm Tracking
New forecast layout! Learn more

10-Day Weather Forecast

Advertisements
Track Severe Weather on mobile